sensor_id;sensor_type;location;lat;lon;timestamp;temperature;humidity
66343;DHT22;53144;51.524;5.080;2024-03-08T00:01:52;3.99;89.55
66343;DHT22;53144;51.524;5.080;2024-03-08T00:04:17;3.95;89.64
66343;DHT22;53144;51.524;5.080;2024-03-08T00:06:43;3.93;89.58
66343;DHT22;53144;51.524;5.080;2024-03-08T00:09:11;3.90;89.78
66343;DHT22;53144;51.524;5.080;2024-03-08T00:11:36;3.90;89.55
66343;DHT22;53144;51.524;5.080;2024-03-08T00:14:01;3.82;89.61
66343;DHT22;53144;51.524;5.080;2024-03-08T00:16:27;3.78;89.73
66343;DHT22;53144;51.524;5.080;2024-03-08T00:18:52;3.76;89.52
66343;DHT22;53144;51.524;5.080;2024-03-08T00:21:18;3.79;89.67
66343;DHT22;53144;51.524;5.080;2024-03-08T00:23:43;3.76;89.47
66343;DHT22;53144;51.524;5.080;2024-03-08T00:26:08;3.74;89.15
66343;DHT22;53144;51.524;5.080;2024-03-08T00:28:34;3.75;89.31
66343;DHT22;53144;51.524;5.080;2024-03-08T00:31:00;3.74;89.50
66343;DHT22;53144;51.524;5.080;2024-03-08T00:33:25;3.75;89.12
66343;DHT22;53144;51.524;5.080;2024-03-08T00:35:52;3.69;89.10
66343;DHT22;53144;51.524;5.080;2024-03-08T00:38:18;3.68;89.11
66343;DHT22;53144;51.524;5.080;2024-03-08T00:40:44;3.59;89.19
66343;DHT22;53144;51.524;5.080;2024-03-08T00:43:09;3.62;89.44
66343;DHT22;53144;51.524;5.080;2024-03-08T00:45:38;3.56;89.44
66343;DHT22;53144;51.524;5.080;2024-03-08T00:48:04;3.59;89.18
66343;DHT22;53144;51.524;5.080;2024-03-08T00:50:30;3.54;89.08
66343;DHT22;53144;51.524;5.080;2024-03-08T00:52:56;3.54;89.32
66343;DHT22;53144;51.524;5.080;2024-03-08T00:55:21;3.56;89.02
66343;DHT22;53144;51.524;5.080;2024-03-08T00:57:46;3.44;89.13
66343;DHT22;53144;51.524;5.080;2024-03-08T01:00:12;3.45;88.97
66343;DHT22;53144;51.524;5.080;2024-03-08T01:02:40;3.41;89.23
66343;DHT22;53144;51.524;5.080;2024-03-08T01:05:06;3.41;89.51
66343;DHT22;53144;51.524;5.080;2024-03-08T01:07:33;3.45;89.02
66343;DHT22;53144;51.524;5.080;2024-03-08T01:09:59;3.39;89.07
66343;DHT22;53144;51.524;5.080;2024-03-08T01:12:25;3.39;89.21
66343;DHT22;53144;51.524;5.080;2024-03-08T01:14:51;3.34;88.96
66343;DHT22;53144;51.524;5.080;2024-03-08T01:17:19;3.37;88.96
66343;DHT22;53144;51.524;5.080;2024-03-08T01:19:44;3.27;89.18
66343;DHT22;53144;51.524;5.080;2024-03-08T01:22:13;3.32;88.82
66343;DHT22;53144;51.524;5.080;2024-03-08T01:24:38;3.31;88.83
66343;DHT22;53144;51.524;5.080;2024-03-08T01:27:04;3.23;88.88
66343;DHT22;53144;51.524;5.080;2024-03-08T01:29:29;3.32;88.50
66343;DHT22;53144;51.524;5.080;2024-03-08T01:31:55;3.24;88.68
66343;DHT22;53144;51.524;5.080;2024-03-08T01:34:21;3.27;88.46
66343;DHT22;53144;51.524;5.080;2024-03-08T01:36:46;3.24;88.22
66343;DHT22;53144;51.524;5.080;2024-03-08T01:39:12;3.17;88.71
66343;DHT22;53144;51.524;5.080;2024-03-08T01:41:37;3.13;88.93
66343;DHT22;53144;51.524;5.080;2024-03-08T01:44:03;3.16;88.61
66343;DHT22;53144;51.524;5.080;2024-03-08T01:46:28;3.18;88.21
66343;DHT22;53144;51.524;5.080;2024-03-08T01:48:54;3.11;88.64
66343;DHT22;53144;51.524;5.080;2024-03-08T01:51:19;3.16;88.20
66343;DHT22;53144;51.524;5.080;2024-03-08T01:53:45;3.04;88.60
66343;DHT22;53144;51.524;5.080;2024-03-08T01:56:11;3.06;88.24
66343;DHT22;53144;51.524;5.080;2024-03-08T01:58:37;3.01;88.62
66343;DHT22;53144;51.524;5.080;2024-03-08T02:01:03;3.06;88.56
66343;DHT22;53144;51.524;5.080;2024-03-08T02:03:29;2.96;88.62
66343;DHT22;53144;51.524;5.080;2024-03-08T02:05:56;2.97;88.59
66343;DHT22;53144;51.524;5.080;2024-03-08T02:08:23;2.85;88.68
66343;DHT22;53144;51.524;5.080;2024-03-08T02:10:49;2.87;88.74
66343;DHT22;53144;51.524;5.080;2024-03-08T02:13:14;2.87;88.94
66343;DHT22;53144;51.524;5.080;2024-03-08T02:15:53;2.80;88.92
66343;DHT22;53144;51.524;5.080;2024-03-08T02:18:19;2.86;89.14
66343;DHT22;53144;51.524;5.080;2024-03-08T02:20:49;2.85;88.43
66343;DHT22;53144;51.524;5.080;2024-03-08T02:23:14;2.79;88.51
66343;DHT22;53144;51.524;5.080;2024-03-08T02:25:40;2.77;88.67
66343;DHT22;53144;51.524;5.080;2024-03-08T02:28:07;2.75;88.84
66343;DHT22;53144;51.524;5.080;2024-03-08T02:30:34;2.80;88.63
66343;DHT22;53144;51.524;5.080;2024-03-08T02:32:59;2.71;88.83
66343;DHT22;53144;51.524;5.080;2024-03-08T02:35:24;2.68;88.90
66343;DHT22;53144;51.524;5.080;2024-03-08T02:37:50;2.71;88.66
66343;DHT22;53144;51.524;5.080;2024-03-08T02:40:15;2.71;88.68
66343;DHT22;53144;51.524;5.080;2024-03-08T02:42:41;2.66;88.72
66343;DHT22;53144;51.524;5.080;2024-03-08T02:45:07;2.63;89.01
66343;DHT22;53144;51.524;5.080;2024-03-08T02:47:35;2.65;88.77
66343;DHT22;53144;51.524;5.080;2024-03-08T02:50:00;2.71;88.26
66343;DHT22;53144;51.524;5.080;2024-03-08T02:52:26;2.62;88.65
66343;DHT22;53144;51.524;5.080;2024-03-08T02:54:51;2.58;88.58
66343;DHT22;53144;51.524;5.080;2024-03-08T02:57:17;2.55;88.84
66343;DHT22;53144;51.524;5.080;2024-03-08T02:59:43;2.56;88.87
66343;DHT22;53144;51.524;5.080;2024-03-08T03:02:09;2.49;88.79
66343;DHT22;53144;51.524;5.080;2024-03-08T03:04:35;2.53;88.69
66343;DHT22;53144;51.524;5.080;2024-03-08T03:07:00;2.42;88.96
66343;DHT22;53144;51.524;5.080;2024-03-08T03:09:26;2.41;89.12
66343;DHT22;53144;51.524;5.080;2024-03-08T03:11:55;2.45;88.85
66343;DHT22;53144;51.524;5.080;2024-03-08T03:14:21;2.42;88.58
66343;DHT22;53144;51.524;5.080;2024-03-08T03:16:46;2.41;89.03
66343;DHT22;53144;51.524;5.080;2024-03-08T03:19:12;2.44;88.68
66343;DHT22;53144;51.524;5.080;2024-03-08T03:21:37;2.45;88.35
66343;DHT22;53144;51.524;5.080;2024-03-08T03:24:03;2.45;88.32
66343;DHT22;53144;51.524;5.080;2024-03-08T03:26:29;2.38;88.44
66343;DHT22;53144;51.524;5.080;2024-03-08T03:28:56;2.27;89.08
66343;DHT22;53144;51.524;5.080;2024-03-08T03:31:22;2.25;89.00
66343;DHT22;53144;51.524;5.080;2024-03-08T03:33:49;2.35;88.55
66343;DHT22;53144;51.524;5.080;2024-03-08T03:36:16;2.28;88.27
66343;DHT22;53144;51.524;5.080;2024-03-08T03:38:43;2.34;88.42
66343;DHT22;53144;51.524;5.080;2024-03-08T03:41:08;2.25;88.40
66343;DHT22;53144;51.524;5.080;2024-03-08T03:43:36;2.29;88.35
66343;DHT22;53144;51.524;5.080;2024-03-08T03:46:05;2.25;88.35
66343;DHT22;53144;51.524;5.080;2024-03-08T03:48:30;2.32;88.27
66343;DHT22;53144;51.524;5.080;2024-03-08T03:50:57;2.31;88.13
66343;DHT22;53144;51.524;5.080;2024-03-08T03:53:22;2.37;87.98
66343;DHT22;53144;51.524;5.080;2024-03-08T03:55:47;2.27;88.32
66343;DHT22;53144;51.524;5.080;2024-03-08T03:58:13;2.20;88.26
66343;DHT22;53144;51.524;5.080;2024-03-08T04:00:39;2.20;88.28
66343;DHT22;53144;51.524;5.080;2024-03-08T04:03:05;2.11;88.16
66343;DHT22;53144;51.524;5.080;2024-03-08T04:05:31;2.17;88.22
66343;DHT22;53144;51.524;5.080;2024-03-08T04:07:56;2.18;88.21
66343;DHT22;53144;51.524;5.080;2024-03-08T04:10:22;2.10;88.40
66343;DHT22;53144;51.524;5.080;2024-03-08T04:12:47;2.13;88.36
66343;DHT22;53144;51.524;5.080;2024-03-08T04:15:13;2.11;88.35
66343;DHT22;53144;51.524;5.080;2024-03-08T04:17:38;2.11;88.34
66343;DHT22;53144;51.524;5.080;2024-03-08T04:20:04;2.11;88.07
66343;DHT22;53144;51.524;5.080;2024-03-08T04:22:37;2.11;88.05
66343;DHT22;53144;51.524;5.080;2024-03-08T04:25:03;2.10;88.42
66343;DHT22;53144;51.524;5.080;2024-03-08T04:27:31;2.13;88.12
66343;DHT22;53144;51.524;5.080;2024-03-08T04:29:57;2.11;87.88
66343;DHT22;53144;51.524;5.080;2024-03-08T04:32:23;2.08;88.22
66343;DHT22;53144;51.524;5.080;2024-03-08T04:34:48;2.07;88.16
66343;DHT22;53144;51.524;5.080;2024-03-08T04:37:14;2.06;88.10
66343;DHT22;53144;51.524;5.080;2024-03-08T04:39:40;1.98;88.29
66343;DHT22;53144;51.524;5.080;2024-03-08T04:42:05;1.93;88.51
66343;DHT22;53144;51.524;5.080;2024-03-08T04:44:36;2.01;87.92
66343;DHT22;53144;51.524;5.080;2024-03-08T04:47:03;1.96;88.20
66343;DHT22;53144;51.524;5.080;2024-03-08T04:49:28;1.96;88.27
66343;DHT22;53144;51.524;5.080;2024-03-08T04:51:53;1.93;88.29
66343;DHT22;53144;51.524;5.080;2024-03-08T04:54:19;1.90;88.29
66343;DHT22;53144;51.524;5.080;2024-03-08T04:56:44;1.94;88.16
66343;DHT22;53144;51.524;5.080;2024-03-08T04:59:10;1.89;88.34
66343;DHT22;53144;51.524;5.080;2024-03-08T05:01:35;1.93;88.28
66343;DHT22;53144;51.524;5.080;2024-03-08T05:04:03;1.93;88.03
66343;DHT22;53144;51.524;5.080;2024-03-08T05:06:28;1.84;87.88
66343;DHT22;53144;51.524;5.080;2024-03-08T05:08:55;1.90;87.83
66343;DHT22;53144;51.524;5.080;2024-03-08T05:11:20;1.84;88.17
66343;DHT22;53144;51.524;5.080;2024-03-08T05:13:49;1.83;88.19
66343;DHT22;53144;51.524;5.080;2024-03-08T05:16:14;1.81;87.83
66343;DHT22;53144;51.524;5.080;2024-03-08T05:18:40;1.86;87.86
66343;DHT22;53144;51.524;5.080;2024-03-08T05:21:07;1.84;87.74
66343;DHT22;53144;51.524;5.080;2024-03-08T05:23:34;1.77;87.99
66343;DHT22;53144;51.524;5.080;2024-03-08T05:25:59;1.77;88.12
66343;DHT22;53144;51.524;5.080;2024-03-08T05:28:26;1.79;87.83
66343;DHT22;53144;51.524;5.080;2024-03-08T05:30:51;1.74;88.05
66343;DHT22;53144;51.524;5.080;2024-03-08T05:33:19;1.79;87.95
66343;DHT22;53144;51.524;5.080;2024-03-08T05:35:44;1.73;88.06
66343;DHT22;53144;51.524;5.080;2024-03-08T05:38:11;1.71;87.99
66343;DHT22;53144;51.524;5.080;2024-03-08T05:40:38;1.79;87.72
66343;DHT22;53144;51.524;5.080;2024-03-08T05:43:03;1.74;88.05
66343;DHT22;53144;51.524;5.080;2024-03-08T05:45:29;1.71;88.03
66343;DHT22;53144;51.524;5.080;2024-03-08T05:47:54;1.69;87.99
66343;DHT22;53144;51.524;5.080;2024-03-08T05:50:19;1.66;88.31
66343;DHT22;53144;51.524;5.080;2024-03-08T05:52:45;1.63;88.30
66343;DHT22;53144;51.524;5.080;2024-03-08T05:55:12;1.62;88.25
66343;DHT22;53144;51.524;5.080;2024-03-08T05:57:39;1.60;88.19
66343;DHT22;53144;51.524;5.080;2024-03-08T06:00:05;1.58;88.14
66343;DHT22;53144;51.524;5.080;2024-03-08T06:02:31;1.60;88.25
66343;DHT22;53144;51.524;5.080;2024-03-08T06:04:56;1.58;88.36
66343;DHT22;53144;51.524;5.080;2024-03-08T06:07:21;1.60;88.36
66343;DHT22;53144;51.524;5.080;2024-03-08T06:09:47;1.58;88.34
66343;DHT22;53144;51.524;5.080;2024-03-08T06:12:13;1.58;88.23
66343;DHT22;53144;51.524;5.080;2024-03-08T06:14:44;1.58;88.06
66343;DHT22;53144;51.524;5.080;2024-03-08T06:17:09;1.58;88.48
66343;DHT22;53144;51.524;5.080;2024-03-08T06:19:36;1.59;88.20
66343;DHT22;53144;51.524;5.080;2024-03-08T06:22:01;1.58;88.27
66343;DHT22;53144;51.524;5.080;2024-03-08T06:24:30;1.48;88.66
66343;DHT22;53144;51.524;5.080;2024-03-08T06:26:56;1.55;88.47
66343;DHT22;53144;51.524;5.080;2024-03-08T06:29:22;1.60;88.27
66343;DHT22;53144;51.524;5.080;2024-03-08T06:31:47;1.58;88.28
66343;DHT22;53144;51.524;5.080;2024-03-08T06:34:16;1.60;88.28
66343;DHT22;53144;51.524;5.080;2024-03-08T06:36:43;1.62;88.42
66343;DHT22;53144;51.524;5.080;2024-03-08T06:39:08;1.62;88.06
66343;DHT22;53144;51.524;5.080;2024-03-08T06:41:36;1.63;88.06
66343;DHT22;53144;51.524;5.080;2024-03-08T06:44:02;1.66;88.17
66343;DHT22;53144;51.524;5.080;2024-03-08T06:46:28;1.64;87.91
66343;DHT22;53144;51.524;5.080;2024-03-08T06:48:53;1.69;88.03
66343;DHT22;53144;51.524;5.080;2024-03-08T06:51:18;1.76;87.73
66343;DHT22;53144;51.524;5.080;2024-03-08T06:53:44;1.76;88.19
66343;DHT22;53144;51.524;5.080;2024-03-08T06:56:11;1.74;88.07
66343;DHT22;53144;51.524;5.080;2024-03-08T06:58:37;1.79;88.20
66343;DHT22;53144;51.524;5.080;2024-03-08T07:01:02;1.84;87.70
66343;DHT22;53144;51.524;5.080;2024-03-08T07:03:32;1.84;87.53
66343;DHT22;53144;51.524;5.080;2024-03-08T07:05:57;1.93;87.39
66343;DHT22;53144;51.524;5.080;2024-03-08T07:08:23;1.94;87.35
66343;DHT22;53144;51.524;5.080;2024-03-08T07:10:48;2.03;86.74
66343;DHT22;53144;51.524;5.080;2024-03-08T07:13:17;2.10;86.85
66343;DHT22;53144;51.524;5.080;2024-03-08T07:15:43;2.17;86.37
66343;DHT22;53144;51.524;5.080;2024-03-08T07:18:08;2.24;86.02
66343;DHT22;53144;51.524;5.080;2024-03-08T07:20:42;2.24;86.32
66343;DHT22;53144;51.524;5.080;2024-03-08T07:23:08;2.35;85.94
66343;DHT22;53144;51.524;5.080;2024-03-08T07:25:35;2.32;85.82
66343;DHT22;53144;51.524;5.080;2024-03-08T07:28:01;2.42;86.19
66343;DHT22;53144;51.524;5.080;2024-03-08T07:30:26;2.48;85.76
66343;DHT22;53144;51.524;5.080;2024-03-08T07:33:10;2.62;85.07
66343;DHT22;53144;51.524;5.080;2024-03-08T07:35:40;2.69;84.70
66343;DHT22;53144;51.524;5.080;2024-03-08T07:38:08;2.72;85.19
66343;DHT22;53144;51.524;5.080;2024-03-08T07:40:38;2.80;84.59
66343;DHT22;53144;51.524;5.080;2024-03-08T07:43:05;2.83;84.31
66343;DHT22;53144;51.524;5.080;2024-03-08T07:45:31;2.95;84.28
66343;DHT22;53144;51.524;5.080;2024-03-08T07:47:56;2.95;83.94
66343;DHT22;53144;51.524;5.080;2024-03-08T07:50:22;3.03;83.60
66343;DHT22;53144;51.524;5.080;2024-03-08T07:52:47;3.11;84.42
66343;DHT22;53144;51.524;5.080;2024-03-08T07:55:13;3.20;83.98
66343;DHT22;53144;51.524;5.080;2024-03-08T07:57:38;3.27;83.19
66343;DHT22;53144;51.524;5.080;2024-03-08T08:00:05;3.31;82.76
66343;DHT22;53144;51.524;5.080;2024-03-08T08:02:32;3.32;82.50
66343;DHT22;53144;51.524;5.080;2024-03-08T08:04:59;3.44;83.13
66343;DHT22;53144;51.524;5.080;2024-03-08T08:07:24;3.51;83.26
66343;DHT22;53144;51.524;5.080;2024-03-08T08:09:50;3.62;82.88
66343;DHT22;53144;51.524;5.080;2024-03-08T08:12:15;3.59;82.57
66343;DHT22;53144;51.524;5.080;2024-03-08T08:14:41;3.61;82.57
66343;DHT22;53144;51.524;5.080;2024-03-08T08:17:06;3.81;81.86
66343;DHT22;53144;51.524;5.080;2024-03-08T08:19:33;3.75;82.35
66343;DHT22;53144;51.524;5.080;2024-03-08T08:22:00;3.87;81.50
66343;DHT22;53144;51.524;5.080;2024-03-08T08:24:28;3.92;81.86
66343;DHT22;53144;51.524;5.080;2024-03-08T08:26:53;4.07;81.74
66343;DHT22;53144;51.524;5.080;2024-03-08T08:29:18;4.20;81.48
66343;DHT22;53144;51.524;5.080;2024-03-08T08:31:45;4.32;81.39
66343;DHT22;53144;51.524;5.080;2024-03-08T08:34:11;4.40;81.23
66343;DHT22;53144;51.524;5.080;2024-03-08T08:36:37;4.45;81.31
66343;DHT22;53144;51.524;5.080;2024-03-08T08:39:04;4.61;80.21
66343;DHT22;53144;51.524;5.080;2024-03-08T08:41:30;4.72;80.68
66343;DHT22;53144;51.524;5.080;2024-03-08T08:43:57;4.81;79.88
66343;DHT22;53144;51.524;5.080;2024-03-08T08:46:22;4.84;80.28
66343;DHT22;53144;51.524;5.080;2024-03-08T08:48:47;4.93;79.23
66343;DHT22;53144;51.524;5.080;2024-03-08T08:51:13;4.97;78.53
66343;DHT22;53144;51.524;5.080;2024-03-08T08:53:39;5.03;79.63
66343;DHT22;53144;51.524;5.080;2024-03-08T08:56:12;5.15;79.23
66343;DHT22;53144;51.524;5.080;2024-03-08T08:58:44;5.16;79.11
66343;DHT22;53144;51.524;5.080;2024-03-08T09:01:09;5.30;78.29
66343;DHT22;53144;51.524;5.080;2024-03-08T09:03:36;5.48;78.14
66343;DHT22;53144;51.524;5.080;2024-03-08T09:06:02;5.60;77.89
66343;DHT22;53144;51.524;5.080;2024-03-08T09:08:29;5.65;76.63
66343;DHT22;53144;51.524;5.080;2024-03-08T09:10:54;5.77;76.17
66343;DHT22;53144;51.524;5.080;2024-03-08T09:13:19;5.81;76.90
66343;DHT22;53144;51.524;5.080;2024-03-08T09:15:45;5.90;76.73
66343;DHT22;53144;51.524;5.080;2024-03-08T09:18:10;5.92;76.48
66343;DHT22;53144;51.524;5.080;2024-03-08T09:20:36;5.92;76.31
66343;DHT22;53144;51.524;5.080;2024-03-08T09:23:02;5.91;76.29
66343;DHT22;53144;51.524;5.080;2024-03-08T09:25:27;6.04;76.46
66343;DHT22;53144;51.524;5.080;2024-03-08T09:27:53;6.19;76.28
66343;DHT22;53144;51.524;5.080;2024-03-08T09:30:19;6.32;76.36
66343;DHT22;53144;51.524;5.080;2024-03-08T09:32:46;6.37;76.83
66343;DHT22;53144;51.524;5.080;2024-03-08T09:35:12;6.40;75.32
66343;DHT22;53144;51.524;5.080;2024-03-08T09:37:37;6.46;75.73
66343;DHT22;53144;51.524;5.080;2024-03-08T09:40:03;6.63;75.18
66343;DHT22;53144;51.524;5.080;2024-03-08T09:42:34;6.66;73.94
66343;DHT22;53144;51.524;5.080;2024-03-08T09:45:03;6.64;74.30
66343;DHT22;53144;51.524;5.080;2024-03-08T09:47:29;6.85;73.98
66343;DHT22;53144;51.524;5.080;2024-03-08T09:49:58;7.00;73.50
66343;DHT22;53144;51.524;5.080;2024-03-08T09:52:24;7.07;72.65
66343;DHT22;53144;51.524;5.080;2024-03-08T09:54:49;7.36;73.33
66343;DHT22;53144;51.524;5.080;2024-03-08T09:57:15;7.52;72.89
66343;DHT22;53144;51.524;5.080;2024-03-08T09:59:40;7.84;71.29
66343;DHT22;53144;51.524;5.080;2024-03-08T10:02:13;7.97;70.52
66343;DHT22;53144;51.524;5.080;2024-03-08T10:04:40;7.95;71.03
66343;DHT22;53144;51.524;5.080;2024-03-08T10:07:07;8.24;71.55
66343;DHT22;53144;51.524;5.080;2024-03-08T10:09:32;8.55;69.18
66343;DHT22;53144;51.524;5.080;2024-03-08T10:11:58;8.70;69.18
66343;DHT22;53144;51.524;5.080;2024-03-08T10:14:24;8.79;68.32
66343;DHT22;53144;51.524;5.080;2024-03-08T10:16:49;9.09;67.53
66343;DHT22;53144;51.524;5.080;2024-03-08T10:19:15;9.03;67.91
66343;DHT22;53144;51.524;5.080;2024-03-08T10:21:50;9.00;66.69
66343;DHT22;53144;51.524;5.080;2024-03-08T10:24:18;9.11;66.70
66343;DHT22;53144;51.524;5.080;2024-03-08T10:26:43;9.52;66.19
66343;DHT22;53144;51.524;5.080;2024-03-08T10:29:09;9.75;65.20
66343;DHT22;53144;51.524;5.080;2024-03-08T10:31:34;10.33;64.81
66343;DHT22;53144;51.524;5.080;2024-03-08T10:34:00;10.21;64.11
66343;DHT22;53144;51.524;5.080;2024-03-08T10:36:26;10.72;64.08
66343;DHT22;53144;51.524;5.080;2024-03-08T10:38:52;10.81;61.56
66343;DHT22;53144;51.524;5.080;2024-03-08T10:41:18;11.08;62.14
66343;DHT22;53144;51.524;5.080;2024-03-08T10:46:36;11.47;60.05
66343;DHT22;53144;51.524;5.080;2024-03-08T10:49:00;11.35;58.29
66343;DHT22;53144;51.524;5.080;2024-03-08T10:51:29;11.23;60.56
66343;DHT22;53144;51.524;5.080;2024-03-08T10:53:56;11.30;60.30
66343;DHT22;53144;51.524;5.080;2024-03-08T10:56:22;11.70;59.82
66343;DHT22;53144;51.524;5.080;2024-03-08T10:58:47;11.57;59.18
66343;DHT22;53144;51.524;5.080;2024-03-08T11:01:13;12.08;57.86
66343;DHT22;53144;51.524;5.080;2024-03-08T11:06:08;11.54;59.37
66343;DHT22;53144;51.524;5.080;2024-03-08T11:08:37;11.78;57.47
66343;DHT22;53144;51.524;5.080;2024-03-08T11:11:04;11.97;57.74
66343;DHT22;53144;51.524;5.080;2024-03-08T11:13:33;12.12;57.11
66343;DHT22;53144;51.524;5.080;2024-03-08T11:15:59;12.10;57.64
66343;DHT22;53144;51.524;5.080;2024-03-08T11:18:26;12.04;55.99
66343;DHT22;53144;51.524;5.080;2024-03-08T11:20:53;11.88;58.11
66343;DHT22;53144;51.524;5.080;2024-03-08T11:23:18;12.66;56.39
66343;DHT22;53144;51.524;5.080;2024-03-08T11:25:47;12.80;56.32
66343;DHT22;53144;51.524;5.080;2024-03-08T11:28:20;13.28;55.97
66343;DHT22;53144;51.524;5.080;2024-03-08T11:33:24;12.97;54.53
66343;DHT22;53144;51.524;5.080;2024-03-08T11:35:51;12.86;52.52
66343;DHT22;53144;51.524;5.080;2024-03-08T11:38:17;12.87;55.39
66343;DHT22;53144;51.524;5.080;2024-03-08T11:40:45;13.10;53.83
66343;DHT22;53144;51.524;5.080;2024-03-08T11:43:15;13.17;54.55
66343;DHT22;53144;51.524;5.080;2024-03-08T11:45:40;13.37;54.20
66343;DHT22;53144;51.524;5.080;2024-03-08T11:48:06;13.37;53.20
66343;DHT22;53144;51.524;5.080;2024-03-08T11:51:00;13.25;52.05
66343;DHT22;53144;51.524;5.080;2024-03-08T11:53:26;12.69;52.16
66343;DHT22;53144;51.524;5.080;2024-03-08T11:55:52;12.97;52.52
66343;DHT22;53144;51.524;5.080;2024-03-08T11:58:17;13.18;52.54
66343;DHT22;53144;51.524;5.080;2024-03-08T12:00:43;12.83;52.02
66343;DHT22;53144;51.524;5.080;2024-03-08T12:03:11;12.80;53.02
66343;DHT22;53144;51.524;5.080;2024-03-08T12:05:37;12.77;52.91
66343;DHT22;53144;51.524;5.080;2024-03-08T12:08:03;13.06;52.90
66343;DHT22;53144;51.524;5.080;2024-03-08T12:10:32;12.77;54.39
66343;DHT22;53144;51.524;5.080;2024-03-08T12:12:58;12.83;52.80
66343;DHT22;53144;51.524;5.080;2024-03-08T12:15:27;13.10;52.96
66343;DHT22;53144;51.524;5.080;2024-03-08T12:17:53;13.34;51.44
66343;DHT22;53144;51.524;5.080;2024-03-08T12:20:21;13.15;51.94
66343;DHT22;53144;51.524;5.080;2024-03-08T12:22:47;12.55;53.71
66343;DHT22;53144;51.524;5.080;2024-03-08T12:25:12;13.12;52.21
66343;DHT22;53144;51.524;5.080;2024-03-08T12:27:39;12.82;53.51
66343;DHT22;53144;51.524;5.080;2024-03-08T12:33:00;11.93;55.71
66343;DHT22;53144;51.524;5.080;2024-03-08T12:35:29;11.59;56.31
66343;DHT22;53144;51.524;5.080;2024-03-08T12:37:57;11.47;58.33
66343;DHT22;53144;51.524;5.080;2024-03-08T12:40:26;11.47;58.25
66343;DHT22;53144;51.524;5.080;2024-03-08T12:42:53;11.69;58.30
66343;DHT22;53144;51.524;5.080;2024-03-08T12:45:18;11.70;57.34
66343;DHT22;53144;51.524;5.080;2024-03-08T12:47:44;12.21;57.22
66343;DHT22;53144;51.524;5.080;2024-03-08T12:50:10;12.55;54.07
66343;DHT22;53144;51.524;5.080;2024-03-08T12:52:35;12.87;52.58
66343;DHT22;53144;51.524;5.080;2024-03-08T12:55:01;13.10;52.82
66343;DHT22;53144;51.524;5.080;2024-03-08T12:57:27;13.22;53.03
66343;DHT22;53144;51.524;5.080;2024-03-08T12:59:53;13.06;52.47
66343;DHT22;53144;51.524;5.080;2024-03-08T13:02:20;13.22;52.17
66343;DHT22;53144;51.524;5.080;2024-03-08T13:04:46;13.11;54.58
66343;DHT22;53144;51.524;5.080;2024-03-08T13:07:20;13.65;52.31
66343;DHT22;53144;51.524;5.080;2024-03-08T13:09:46;13.63;51.96
66343;DHT22;53144;51.524;5.080;2024-03-08T13:12:14;13.59;52.14
66343;DHT22;53144;51.524;5.080;2024-03-08T13:14:43;13.75;51.65
66343;DHT22;53144;51.524;5.080;2024-03-08T13:17:08;13.51;50.60
66343;DHT22;53144;51.524;5.080;2024-03-08T13:19:37;13.69;51.20
66343;DHT22;53144;51.524;5.080;2024-03-08T13:22:03;14.02;51.50
66343;DHT22;53144;51.524;5.080;2024-03-08T13:24:32;13.76;51.35
66343;DHT22;53144;51.524;5.080;2024-03-08T13:26:59;13.57;52.57
66343;DHT22;53144;51.524;5.080;2024-03-08T13:29:25;13.95;51.50
66343;DHT22;53144;51.524;5.080;2024-03-08T13:31:50;13.61;51.96
66343;DHT22;53144;51.524;5.080;2024-03-08T13:34:19;13.57;51.71
66343;DHT22;53144;51.524;5.080;2024-03-08T13:36:53;13.55;50.90
66343;DHT22;53144;51.524;5.080;2024-03-08T13:39:19;13.51;51.55
66343;DHT22;53144;51.524;5.080;2024-03-08T13:41:46;13.86;51.88
66343;DHT22;53144;51.524;5.080;2024-03-08T13:44:14;13.98;50.99
66343;DHT22;53144;51.524;5.080;2024-03-08T13:46:40;14.14;52.23
66343;DHT22;53144;51.524;5.080;2024-03-08T13:49:06;14.56;51.74
66343;DHT22;53144;51.524;5.080;2024-03-08T13:51:33;14.41;51.77
66343;DHT22;53144;51.524;5.080;2024-03-08T13:53:59;14.38;50.39
66343;DHT22;53144;51.524;5.080;2024-03-08T13:56:25;13.93;51.95
66343;DHT22;53144;51.524;5.080;2024-03-08T13:58:51;13.82;51.52
66343;DHT22;53144;51.524;5.080;2024-03-08T14:01:17;13.89;52.49
66343;DHT22;53144;51.524;5.080;2024-03-08T14:03:42;14.23;51.33
66343;DHT22;53144;51.524;5.080;2024-03-08T14:06:08;14.42;52.19
66343;DHT22;53144;51.524;5.080;2024-03-08T14:08:34;14.19;51.33
66343;DHT22;53144;51.524;5.080;2024-03-08T14:11:02;13.89;51.82
66343;DHT22;53144;51.524;5.080;2024-03-08T14:13:40;13.76;52.28
66343;DHT22;53144;51.524;5.080;2024-03-08T14:16:05;13.63;53.63
66343;DHT22;53144;51.524;5.080;2024-03-08T14:18:33;13.49;53.81
66343;DHT22;53144;51.524;5.080;2024-03-08T14:21:02;13.71;52.90
66343;DHT22;53144;51.524;5.080;2024-03-08T14:23:29;13.44;53.61
66343;DHT22;53144;51.524;5.080;2024-03-08T14:25:54;13.38;53.52
66343;DHT22;53144;51.524;5.080;2024-03-08T14:28:19;13.04;53.95
66343;DHT22;53144;51.524;5.080;2024-03-08T14:30:45;12.73;55.06
66343;DHT22;53144;51.524;5.080;2024-03-08T14:33:11;12.72;54.74
66343;DHT22;53144;51.524;5.080;2024-03-08T14:35:36;12.43;55.57
66343;DHT22;53144;51.524;5.080;2024-03-08T14:38:02;12.41;57.41
66343;DHT22;53144;51.524;5.080;2024-03-08T14:40:27;12.29;55.56
66343;DHT22;53144;51.524;5.080;2024-03-08T14:42:53;12.35;55.69
66343;DHT22;53144;51.524;5.080;2024-03-08T14:45:19;12.31;55.61
66343;DHT22;53144;51.524;5.080;2024-03-08T14:47:48;11.98;55.70
66343;DHT22;53144;51.524;5.080;2024-03-08T14:50:16;12.14;54.31
66343;DHT22;53144;51.524;5.080;2024-03-08T14:52:42;11.99;55.21
66343;DHT22;53144;51.524;5.080;2024-03-08T14:55:08;12.06;55.39
66343;DHT22;53144;51.524;5.080;2024-03-08T14:57:34;11.93;56.47
66343;DHT22;53144;51.524;5.080;2024-03-08T14:59:59;11.90;57.20
66343;DHT22;53144;51.524;5.080;2024-03-08T15:02:31;11.75;56.41
66343;DHT22;53144;51.524;5.080;2024-03-08T15:04:59;11.87;57.18
66343;DHT22;53144;51.524;5.080;2024-03-08T15:07:26;11.69;57.58
66343;DHT22;53144;51.524;5.080;2024-03-08T15:09:51;11.60;56.88
66343;DHT22;53144;51.524;5.080;2024-03-08T15:12:18;11.73;56.88
66343;DHT22;53144;51.524;5.080;2024-03-08T15:14:47;11.67;56.77
66343;DHT22;53144;51.524;5.080;2024-03-08T15:17:13;11.54;56.98
66343;DHT22;53144;51.524;5.080;2024-03-08T15:19:46;11.42;58.50
66343;DHT22;53144;51.524;5.080;2024-03-08T15:22:13;11.44;58.36
66343;DHT22;53144;51.524;5.080;2024-03-08T15:24:38;11.40;58.62
66343;DHT22;53144;51.524;5.080;2024-03-08T15:27:08;11.32;58.70
66343;DHT22;53144;51.524;5.080;2024-03-08T15:29:34;11.40;57.42
66343;DHT22;53144;51.524;5.080;2024-03-08T15:32:00;11.36;58.30
66343;DHT22;53144;51.524;5.080;2024-03-08T15:34:26;11.26;58.81
66343;DHT22;53144;51.524;5.080;2024-03-08T15:36:51;11.33;57.83
66343;DHT22;53144;51.524;5.080;2024-03-08T15:39:17;11.27;57.53
66343;DHT22;53144;51.524;5.080;2024-03-08T15:41:42;11.32;57.19
66343;DHT22;53144;51.524;5.080;2024-03-08T15:44:11;11.22;57.27
66343;DHT22;53144;51.524;5.080;2024-03-08T15:46:38;11.19;57.45